createdAt,value
2023-03-19T00:00:38.465Z,17.65
2023-03-19T00:03:05.392Z,16.65
2023-03-19T00:05:32.243Z,14.20
2023-03-19T00:07:58.850Z,16.38
2023-03-19T00:10:26.250Z,10.27
2023-03-19T00:12:52.922Z,12.50
2023-03-19T00:15:19.747Z,16.02
2023-03-19T00:17:46.393Z,12.80
2023-03-19T00:20:15.124Z,14.60
2023-03-19T00:22:42.164Z,12.85
2023-03-19T00:25:10.113Z,12.18
2023-03-19T00:27:38.227Z,14.13
2023-03-19T00:30:07.107Z,11.45
2023-03-19T00:32:34.251Z,9.68
2023-03-19T00:35:01.537Z,9.98
2023-03-19T00:37:28.627Z,14.05
2023-03-19T00:39:55.884Z,11.48
2023-03-19T00:42:22.535Z,9.98
2023-03-19T00:44:49.117Z,13.25
2023-03-19T00:47:15.827Z,11.45
2023-03-19T00:49:42.512Z,12.02
2023-03-19T00:52:09.165Z,14.13
2023-03-19T00:54:35.982Z,9.75
2023-03-19T00:57:02.663Z,12.23
2023-03-19T00:59:29.401Z,11.32
2023-03-19T01:01:56.121Z,10.85
2023-03-19T01:04:23.469Z,12.40
2023-03-19T01:06:50.161Z,10.98
2023-03-19T01:09:16.768Z,15.88
2023-03-19T01:11:43.447Z,13.40
2023-03-19T01:14:10.297Z,14.48
2023-03-19T01:16:37.026Z,9.10
2023-03-19T01:19:04.048Z,11.32
2023-03-19T01:21:31.283Z,14.52
2023-03-19T01:23:58.898Z,11.63
2023-03-19T01:26:26.228Z,14.48
2023-03-19T01:28:53.131Z,13.35
2023-03-19T01:31:20.000Z,10.98
2023-03-19T01:33:46.921Z,12.70
2023-03-19T01:36:13.774Z,14.02
2023-03-19T01:38:40.839Z,14.10
2023-03-19T01:41:08.249Z,16.48
2023-03-19T01:43:35.200Z,13.50
2023-03-19T01:46:12.067Z,18.23
2023-03-19T01:48:47.401Z,17.67
2023-03-19T01:51:17.037Z,17.42
2023-03-19T01:53:47.651Z,14.30
2023-03-19T01:56:45.563Z,17.35
2023-03-19T01:59:21.435Z,18.38
2023-03-19T02:01:55.437Z,22.42
2023-03-19T02:04:23.667Z,18.92
2023-03-19T02:06:50.522Z,18.55
2023-03-19T02:09:18.927Z,21.58
2023-03-19T02:11:46.214Z,22.65
2023-03-19T02:14:13.511Z,23.95
2023-03-19T02:16:40.242Z,23.73
2023-03-19T02:19:13.554Z,23.02
2023-03-19T02:21:40.371Z,21.60
2023-03-19T02:24:14.204Z,24.45
2023-03-19T02:26:43.399Z,25.73
2023-03-19T02:29:11.168Z,26.95
2023-03-19T02:31:38.047Z,25.40
2023-03-19T02:34:24.766Z,21.23
2023-03-19T02:36:57.193Z,23.75
2023-03-19T02:39:30.994Z,24.10
2023-03-19T02:41:59.218Z,22.58
2023-03-19T02:44:26.508Z,21.33
2023-03-19T02:46:53.332Z,23.00
2023-03-19T02:49:20.357Z,18.98
2023-03-19T02:51:47.126Z,21.35
2023-03-19T02:54:13.696Z,22.60
2023-03-19T02:56:40.466Z,19.85
2023-03-19T02:59:07.397Z,27.48
2023-03-19T03:01:34.051Z,44.10
2023-03-19T03:04:00.611Z,29.05
2023-03-19T03:06:27.244Z,26.15
2023-03-19T03:08:54.574Z,24.75
2023-03-19T03:11:21.178Z,22.85
2023-03-19T03:13:47.762Z,22.08
2023-03-19T03:16:14.366Z,23.48
2023-03-19T03:18:41.573Z,25.40
2023-03-19T03:21:08.383Z,30.23
2023-03-19T03:23:34.960Z,33.60
2023-03-19T03:26:01.824Z,33.88
2023-03-19T03:28:28.721Z,22.02
2023-03-19T03:31:00.036Z,24.33
2023-03-19T03:33:27.326Z,21.17
2023-03-19T03:35:54.522Z,20.27
2023-03-19T03:38:21.472Z,19.20
2023-03-19T03:40:52.671Z,19.70
2023-03-19T03:43:21.439Z,16.17
2023-03-19T03:45:49.071Z,8.23
2023-03-19T03:48:16.703Z,9.73
2023-03-19T03:50:44.022Z,9.75
2023-03-19T03:53:12.934Z,7.05
2023-03-19T03:55:39.800Z,12.95
2023-03-19T03:58:06.571Z,13.50
2023-03-19T04:00:33.554Z,12.57
2023-03-19T04:03:00.374Z,9.70
2023-03-19T04:05:27.143Z,12.38
2023-03-19T04:07:53.823Z,10.30
2023-03-19T04:10:20.537Z,16.48
2023-03-19T04:12:47.839Z,10.40
2023-03-19T04:15:14.620Z,9.45
2023-03-19T04:17:41.792Z,10.73
2023-03-19T04:20:09.545Z,11.88
2023-03-19T04:22:36.622Z,11.68
2023-03-19T04:25:03.416Z,13.95
2023-03-19T04:27:30.004Z,13.38
2023-03-19T04:29:56.625Z,15.25
2023-03-19T04:32:23.882Z,17.45
2023-03-19T04:34:50.544Z,17.13
2023-03-19T04:37:17.540Z,13.38
2023-03-19T04:39:44.613Z,19.02
2023-03-19T04:42:11.564Z,16.88
2023-03-19T04:44:38.745Z,15.90
2023-03-19T04:47:05.800Z,17.58
2023-03-19T04:49:32.447Z,17.73
2023-03-19T04:51:59.326Z,14.48
2023-03-19T04:54:26.061Z,14.15
2023-03-19T04:56:53.291Z,15.45
2023-03-19T04:59:21.877Z,12.70
2023-03-19T05:01:49.600Z,14.70
2023-03-19T05:04:16.231Z,12.40
2023-03-19T05:06:42.902Z,14.20
2023-03-19T05:09:09.467Z,10.70
2023-03-19T05:11:36.510Z,13.50
2023-03-19T05:14:03.178Z,12.65
2023-03-19T05:16:30.039Z,14.82
2023-03-19T05:18:56.887Z,16.38
2023-03-19T05:21:23.800Z,16.55
2023-03-19T05:23:52.853Z,15.40
2023-03-19T05:26:19.443Z,21.40
2023-03-19T05:28:46.069Z,19.58
2023-03-19T05:31:12.907Z,24.20
2023-03-19T05:33:39.569Z,16.17
2023-03-19T05:36:08.023Z,10.40
2023-03-19T05:38:34.919Z,11.40
2023-03-19T05:41:05.758Z,12.77
2023-03-19T05:43:32.819Z,13.20
2023-03-19T05:45:59.985Z,13.50
2023-03-19T05:48:26.727Z,13.98
2023-03-19T05:50:53.292Z,9.65
2023-03-19T05:53:20.493Z,11.93
2023-03-19T05:55:47.356Z,19.00
2023-03-19T05:58:14.005Z,8.70
2023-03-19T06:00:40.712Z,10.70
2023-03-19T06:03:07.493Z,7.57
2023-03-19T06:05:34.823Z,8.25
2023-03-19T06:08:01.498Z,5.15
2023-03-19T06:10:28.183Z,5.35
2023-03-19T06:12:54.821Z,4.57
2023-03-19T06:15:21.512Z,6.15
2023-03-19T06:17:48.629Z,7.75
2023-03-19T06:20:15.434Z,7.45
2023-03-19T06:22:42.320Z,7.60
2023-03-19T06:25:09.112Z,8.50
2023-03-19T06:27:35.905Z,9.35
2023-03-19T06:30:02.667Z,15.88
2023-03-19T06:32:29.429Z,20.10
2023-03-19T06:34:56.860Z,22.10
2023-03-19T06:37:23.840Z,14.95
2023-03-19T06:39:51.528Z,16.38
2023-03-19T06:42:18.365Z,13.77
2023-03-19T06:44:45.142Z,13.18
2023-03-19T06:47:11.897Z,12.85
2023-03-19T06:49:38.530Z,12.57
2023-03-19T06:52:05.136Z,11.82
2023-03-19T06:54:31.918Z,15.80
2023-03-19T06:56:59.365Z,13.48
2023-03-19T06:59:26.760Z,12.77
2023-03-19T07:01:53.475Z,13.95
2023-03-19T07:04:20.792Z,10.80
2023-03-19T07:06:47.581Z,9.77
2023-03-19T07:09:14.347Z,8.88
2023-03-19T07:11:41.376Z,9.02
2023-03-19T07:14:08.060Z,11.07
2023-03-19T07:16:35.043Z,16.10
2023-03-19T07:19:01.682Z,12.90
2023-03-19T07:21:29.080Z,9.60
2023-03-19T07:23:56.164Z,15.50
2023-03-19T07:26:22.939Z,10.30
2023-03-19T07:28:49.502Z,9.30
2023-03-19T07:31:17.220Z,10.52
2023-03-19T07:33:44.131Z,10.77
2023-03-19T07:36:11.346Z,7.90
2023-03-19T07:38:38.007Z,11.95
2023-03-19T07:41:04.849Z,10.52
2023-03-19T07:43:31.918Z,8.45
2023-03-19T07:45:59.241Z,10.07
2023-03-19T07:48:26.128Z,10.30
2023-03-19T07:50:53.296Z,8.90
2023-03-19T07:53:20.044Z,7.30
2023-03-19T07:55:47.829Z,9.35
2023-03-19T07:58:15.021Z,7.47
2023-03-19T08:00:41.865Z,9.73
2023-03-19T08:03:08.740Z,7.95
2023-03-19T08:05:35.528Z,7.40
2023-03-19T08:08:02.100Z,7.80
2023-03-19T08:10:28.971Z,9.18
2023-03-19T08:12:57.918Z,7.80
2023-03-19T08:15:24.516Z,6.60
2023-03-19T08:17:58.273Z,10.10
2023-03-19T08:20:24.833Z,8.13
2023-03-19T08:22:51.535Z,6.00
2023-03-19T08:25:18.466Z,8.07
2023-03-19T08:27:45.039Z,9.65
2023-03-19T08:30:12.554Z,7.05
2023-03-19T08:32:39.152Z,6.75
2023-03-19T08:35:06.726Z,8.05
2023-03-19T08:37:33.557Z,6.45
2023-03-19T08:40:00.354Z,7.82
2023-03-19T08:42:27.122Z,7.93
2023-03-19T08:44:53.831Z,10.00
2023-03-19T08:47:24.278Z,6.95
2023-03-19T08:49:51.947Z,8.70
2023-03-19T08:52:19.831Z,7.07
2023-03-19T08:54:46.676Z,8.57
2023-03-19T08:57:13.335Z,7.57
2023-03-19T08:59:39.861Z,8.98
2023-03-19T09:02:07.406Z,9.75
2023-03-19T09:04:39.011Z,8.93
2023-03-19T09:07:06.328Z,6.85
2023-03-19T09:09:33.793Z,9.25
2023-03-19T09:12:00.746Z,8.00
2023-03-19T09:14:27.384Z,7.05
2023-03-19T09:16:55.820Z,5.50
2023-03-19T09:19:23.780Z,5.63
2023-03-19T09:21:50.798Z,5.90
2023-03-19T09:24:18.825Z,7.10
2023-03-19T09:26:46.195Z,10.60
2023-03-19T09:29:13.915Z,5.97
2023-03-19T09:31:40.758Z,5.18
2023-03-19T09:34:08.860Z,7.50
2023-03-19T09:36:36.961Z,4.85
2023-03-19T09:39:04.762Z,3.88
2023-03-19T09:41:31.477Z,6.28
2023-03-19T09:44:16.497Z,7.88
2023-03-19T09:46:56.256Z,9.00
2023-03-19T09:49:27.646Z,7.22
2023-03-19T09:52:12.509Z,6.60
2023-03-19T09:54:48.448Z,7.38
2023-03-19T09:57:17.497Z,8.88
2023-03-19T09:59:45.491Z,7.85
2023-03-19T10:02:27.065Z,9.73
2023-03-19T10:05:24.226Z,11.43
2023-03-19T10:07:56.927Z,12.07
2023-03-19T10:10:45.928Z,15.80
2023-03-19T10:13:26.449Z,7.60
2023-03-19T10:15:55.691Z,14.60
2023-03-19T10:18:35.521Z,10.23
2023-03-19T10:21:18.121Z,6.68
2023-03-19T10:23:56.836Z,5.50
2023-03-19T10:26:30.353Z,11.80
2023-03-19T10:29:09.564Z,9.38
2023-03-19T10:32:15.129Z,4.25
2023-03-19T10:34:48.873Z,4.00
2023-03-19T10:37:29.662Z,4.65
2023-03-19T10:40:00.917Z,8.60
2023-03-19T10:42:55.443Z,3.83
2023-03-19T10:45:27.886Z,6.00
2023-03-19T10:47:56.740Z,5.25
2023-03-19T10:50:31.435Z,5.13
2023-03-19T10:53:37.917Z,6.20
2023-03-19T10:56:05.718Z,6.45
2023-03-19T10:58:35.568Z,15.30
2023-03-19T11:01:05.038Z,4.88
2023-03-19T11:03:50.621Z,6.82
2023-03-19T11:06:23.900Z,5.13
2023-03-19T11:08:56.653Z,4.88
2023-03-19T11:11:50.587Z,6.43
2023-03-19T11:14:39.240Z,3.85
2023-03-19T11:17:26.141Z,3.47
2023-03-19T11:19:55.708Z,4.78
2023-03-19T11:22:22.983Z,3.45
2023-03-19T11:24:53.373Z,3.78
2023-03-19T11:27:31.456Z,3.30
2023-03-19T11:29:59.124Z,4.57
2023-03-19T11:32:25.958Z,5.43
2023-03-19T11:34:59.922Z,3.55
2023-03-19T11:37:33.968Z,4.30
2023-03-19T11:40:06.663Z,2.40
2023-03-19T11:43:04.104Z,4.35
2023-03-19T11:45:43.791Z,2.35
2023-03-19T11:48:16.255Z,2.67
2023-03-19T11:50:58.622Z,3.80
2023-03-19T11:53:49.455Z,2.75
2023-03-19T11:56:30.092Z,3.15
2023-03-19T11:59:35.663Z,2.78
2023-03-19T12:02:14.199Z,3.17
2023-03-19T12:05:03.973Z,6.68
2023-03-19T12:07:46.213Z,2.67
2023-03-19T12:10:35.049Z,3.53
2023-03-19T12:13:39.449Z,2.28
2023-03-19T12:16:11.013Z,3.78
2023-03-19T12:18:50.196Z,3.80
2023-03-19T12:21:42.555Z,2.78
2023-03-19T12:24:17.863Z,4.15
2023-03-19T12:27:22.057Z,2.72
2023-03-19T12:30:06.717Z,6.35
2023-03-19T12:32:58.677Z,3.47
2023-03-19T12:35:36.802Z,3.38
2023-03-19T12:38:32.923Z,4.03
2023-03-19T12:41:10.804Z,3.63
2023-03-19T12:43:54.410Z,5.85
2023-03-19T12:46:42.399Z,2.70
2023-03-19T12:49:21.092Z,8.23
2023-03-19T12:51:56.460Z,4.30
2023-03-19T12:54:32.822Z,4.38
2023-03-19T12:57:01.626Z,3.22
2023-03-19T12:59:40.796Z,4.07
2023-03-19T13:02:26.717Z,4.32
2023-03-19T13:05:23.083Z,4.20
2023-03-19T13:08:27.796Z,13.52
2023-03-19T13:10:54.372Z,4.03
2023-03-19T13:13:39.393Z,2.33
2023-03-19T13:16:24.652Z,3.88
2023-03-19T13:19:18.179Z,4.85
2023-03-19T13:21:46.682Z,3.33
2023-03-19T13:24:25.367Z,2.20
2023-03-19T13:26:54.051Z,2.22
2023-03-19T13:29:26.304Z,5.15
2023-03-19T13:31:59.915Z,1.50
2023-03-19T13:34:29.017Z,4.85
2023-03-19T13:37:04.403Z,1.48
2023-03-19T13:39:34.069Z,1.70
2023-03-19T13:42:21.519Z,2.90
2023-03-19T13:45:03.572Z,3.20
2023-03-19T13:47:32.263Z,2.20
2023-03-19T13:50:19.166Z,2.35
2023-03-19T13:52:45.820Z,5.28
2023-03-19T13:55:30.342Z,7.50
2023-03-19T13:58:12.414Z,3.95
2023-03-19T14:00:43.086Z,4.45
2023-03-19T14:03:30.206Z,4.38
2023-03-19T14:05:58.117Z,2.30
2023-03-19T14:08:28.429Z,4.88
2023-03-19T14:10:58.567Z,5.45
2023-03-19T14:13:33.910Z,4.78
2023-03-19T14:16:17.809Z,2.25
2023-03-19T14:18:45.098Z,2.92
2023-03-19T14:21:18.961Z,8.60
2023-03-19T14:23:54.978Z,2.45
2023-03-19T14:26:28.988Z,3.78
2023-03-19T14:29:01.399Z,5.60
2023-03-19T14:31:44.260Z,2.88
2023-03-19T14:34:10.832Z,2.78
2023-03-19T14:36:42.705Z,8.82
2023-03-19T14:39:24.913Z,5.45
2023-03-19T14:42:06.356Z,5.32
2023-03-19T14:45:04.251Z,1.27
2023-03-19T14:47:39.729Z,3.33
2023-03-19T14:50:30.427Z,4.80
2023-03-19T14:53:03.477Z,3.00
2023-03-19T14:55:38.729Z,1.90
2023-03-19T14:58:05.713Z,4.38
2023-03-19T15:00:51.287Z,5.22
2023-03-19T15:03:37.993Z,5.97
2023-03-19T15:06:07.970Z,2.08
2023-03-19T15:08:37.119Z,4.03
2023-03-19T15:11:09.503Z,2.58
2023-03-19T15:13:54.511Z,4.10
2023-03-19T15:16:43.500Z,1.77
2023-03-19T15:19:11.489Z,7.75
2023-03-19T15:21:39.639Z,8.32
2023-03-19T15:24:07.477Z,4.22
2023-03-19T15:26:36.582Z,6.18
2023-03-19T15:29:04.443Z,2.95
2023-03-19T15:31:51.498Z,5.32
2023-03-19T15:34:23.590Z,10.77
2023-03-19T15:36:58.402Z,4.35
2023-03-19T15:39:29.057Z,2.50
2023-03-19T15:41:56.963Z,7.32
2023-03-19T15:44:44.796Z,6.97
2023-03-19T15:47:15.948Z,2.60
2023-03-19T15:50:02.403Z,1.73
2023-03-19T15:52:33.640Z,7.13
2023-03-19T15:55:02.314Z,2.67
2023-03-19T15:57:29.406Z,5.15
2023-03-19T15:59:59.375Z,5.50
2023-03-19T16:02:31.160Z,8.18
2023-03-19T16:05:22.564Z,5.82
2023-03-19T16:07:58.673Z,3.58
2023-03-19T16:10:28.278Z,3.42
2023-03-19T16:12:56.283Z,6.65
2023-03-19T16:15:36.102Z,9.95
2023-03-19T16:18:18.190Z,8.95
2023-03-19T16:20:48.436Z,8.65
2023-03-19T16:23:18.491Z,10.88
2023-03-19T16:25:46.989Z,8.25
2023-03-19T16:28:19.115Z,9.15
2023-03-19T16:30:47.665Z,12.18
2023-03-19T16:33:15.362Z,14.10
2023-03-19T16:35:44.794Z,11.27
2023-03-19T16:38:22.900Z,13.07
2023-03-19T16:41:10.880Z,11.68
2023-03-19T16:43:44.052Z,11.75
2023-03-19T16:46:13.000Z,13.45
2023-03-19T16:48:39.806Z,12.80
2023-03-19T16:51:18.516Z,11.23
2023-03-19T16:53:46.278Z,10.30
2023-03-19T16:56:15.608Z,12.82
2023-03-19T16:58:46.000Z,11.80
2023-03-19T17:01:16.580Z,15.07
2023-03-19T17:03:44.605Z,12.95
2023-03-19T17:06:15.237Z,17.52
2023-03-19T17:08:43.040Z,17.90
2023-03-19T17:11:26.954Z,19.88
2023-03-19T17:13:55.507Z,11.45
2023-03-19T17:16:22.178Z,15.70
2023-03-19T17:18:49.626Z,22.92
2023-03-19T17:21:23.267Z,21.35
2023-03-19T17:23:50.015Z,18.20
2023-03-19T17:26:26.692Z,16.23
2023-03-19T17:28:54.549Z,17.35
2023-03-19T17:31:29.037Z,25.38
2023-03-19T17:34:10.525Z,21.05
2023-03-19T17:36:37.433Z,21.08
2023-03-19T17:39:04.958Z,25.75
2023-03-19T17:41:33.152Z,23.23
2023-03-19T17:44:03.678Z,32.63
2023-03-19T17:46:37.497Z,24.67
2023-03-19T17:49:04.405Z,30.58
2023-03-19T17:51:31.270Z,24.65
2023-03-19T17:53:57.875Z,25.10
2023-03-19T17:56:25.678Z,27.63
2023-03-19T17:58:53.697Z,25.50
2023-03-19T18:01:23.709Z,33.13
2023-03-19T18:03:52.077Z,19.48
2023-03-19T18:06:21.072Z,22.58
2023-03-19T18:08:47.835Z,18.20
2023-03-19T18:11:14.842Z,22.60
2023-03-19T18:13:42.270Z,18.73
2023-03-19T18:16:20.329Z,21.90
2023-03-19T18:18:48.787Z,21.67
2023-03-19T18:21:15.851Z,23.58
2023-03-19T18:23:43.516Z,15.93
2023-03-19T18:26:11.890Z,16.95
2023-03-19T18:28:39.130Z,17.95
2023-03-19T18:31:15.195Z,20.40
2023-03-19T18:33:46.357Z,24.83
2023-03-19T18:36:17.973Z,29.60
2023-03-19T18:38:44.724Z,24.60
2023-03-19T18:41:17.988Z,18.15
2023-03-19T18:43:44.669Z,28.83
2023-03-19T18:46:21.074Z,26.60
2023-03-19T18:48:47.893Z,21.30
2023-03-19T18:51:15.055Z,19.58
2023-03-19T18:53:41.927Z,20.85
2023-03-19T18:56:31.016Z,18.60
2023-03-19T18:58:59.487Z,27.02
2023-03-19T19:01:27.047Z,23.00
2023-03-19T19:03:55.199Z,18.08
2023-03-19T19:06:36.622Z,16.25
2023-03-19T19:09:12.749Z,17.50
2023-03-19T19:11:41.907Z,19.90
2023-03-19T19:14:16.084Z,18.13
2023-03-19T19:16:42.799Z,15.93
2023-03-19T19:19:23.112Z,18.63
2023-03-19T19:21:51.535Z,19.02
2023-03-19T19:24:18.150Z,15.95
2023-03-19T19:26:46.860Z,19.60
2023-03-19T19:29:25.032Z,22.45
2023-03-19T19:31:52.871Z,20.90
2023-03-19T19:34:19.583Z,28.98
2023-03-19T19:36:46.177Z,24.40
2023-03-19T19:39:13.106Z,26.33
2023-03-19T19:41:40.506Z,39.28
2023-03-19T19:44:07.558Z,27.90
2023-03-19T19:46:34.401Z,26.85
2023-03-19T19:49:01.413Z,20.42
2023-03-19T19:51:29.622Z,15.15
2023-03-19T19:53:56.221Z,21.95
2023-03-19T19:56:25.943Z,24.10
2023-03-19T19:58:54.672Z,24.65
2023-03-19T20:01:23.890Z,18.58
2023-03-19T20:03:52.320Z,21.92
2023-03-19T20:06:19.643Z,21.52
2023-03-19T20:08:49.368Z,21.17
2023-03-19T20:11:22.166Z,23.83
2023-03-19T20:13:54.357Z,27.25
2023-03-19T20:16:23.885Z,21.88
2023-03-19T20:18:53.587Z,20.73
2023-03-19T20:21:20.766Z,17.10
2023-03-19T20:23:47.693Z,20.88
2023-03-19T20:26:20.694Z,20.88
2023-03-19T20:28:47.632Z,22.05
2023-03-19T20:31:24.832Z,17.05
2023-03-19T20:33:51.590Z,21.35
2023-03-19T20:36:19.616Z,16.02
2023-03-19T20:38:46.382Z,22.80
2023-03-19T20:41:20.456Z,20.83
2023-03-19T20:43:47.997Z,21.85
2023-03-19T20:46:15.954Z,31.15
2023-03-19T20:48:42.720Z,36.47
2023-03-19T20:51:15.276Z,57.45
2023-03-19T20:53:42.026Z,62.47
2023-03-19T20:56:17.634Z,67.72
2023-03-19T20:58:45.617Z,49.60
2023-03-19T21:01:15.564Z,49.42
2023-03-19T21:03:42.557Z,57.47
2023-03-19T21:06:18.028Z,55.40
2023-03-19T21:08:47.875Z,60.45
2023-03-19T21:11:20.501Z,61.25
2023-03-19T21:13:48.323Z,56.15
2023-03-19T21:16:26.038Z,49.75
2023-03-19T21:18:54.046Z,47.20
2023-03-19T21:21:29.733Z,47.17
2023-03-19T21:24:00.358Z,47.20
2023-03-19T21:26:27.060Z,52.25
2023-03-19T21:28:58.796Z,55.35
2023-03-19T21:31:27.103Z,59.08
2023-03-19T21:33:55.375Z,53.42
2023-03-19T21:36:24.301Z,56.40
2023-03-19T21:38:55.267Z,51.25
2023-03-19T21:41:24.836Z,51.72
2023-03-19T21:44:03.914Z,46.70
2023-03-19T21:46:31.743Z,51.20
2023-03-19T21:48:59.037Z,43.58
2023-03-19T21:51:28.273Z,34.55
2023-03-19T21:53:54.985Z,39.92
2023-03-19T21:56:33.368Z,43.90
2023-03-19T21:59:02.716Z,32.22
2023-03-19T22:01:29.403Z,32.30
2023-03-19T22:03:57.637Z,36.45
2023-03-19T22:06:25.197Z,37.55
2023-03-19T22:08:54.124Z,42.70
2023-03-19T22:11:38.678Z,47.20
2023-03-19T22:14:13.558Z,42.10
2023-03-19T22:16:40.410Z,44.55
2023-03-19T22:19:07.028Z,37.50
2023-03-19T22:21:34.793Z,42.40
2023-03-19T22:24:01.545Z,47.75
2023-03-19T22:26:35.052Z,31.55
2023-03-19T22:29:19.861Z,43.08
2023-03-19T22:31:50.515Z,40.17
2023-03-19T22:34:19.067Z,24.67
2023-03-19T22:36:46.101Z,28.60
2023-03-19T22:39:13.718Z,21.58
2023-03-19T22:41:45.994Z,30.60
2023-03-19T22:44:29.702Z,25.95
2023-03-19T22:46:58.305Z,24.20
2023-03-19T22:49:25.085Z,24.75
2023-03-19T22:51:51.980Z,33.40
2023-03-19T22:54:18.596Z,35.20
2023-03-19T22:56:45.221Z,33.13
2023-03-19T22:59:11.889Z,28.80
2023-03-19T23:01:46.789Z,39.08
2023-03-19T23:04:23.981Z,33.75
2023-03-19T23:06:52.855Z,30.10
2023-03-19T23:09:28.167Z,26.48
2023-03-19T23:11:55.057Z,24.83
2023-03-19T23:14:29.819Z,23.20
2023-03-19T23:16:59.866Z,27.13
2023-03-19T23:19:32.763Z,24.00
2023-03-19T23:22:01.023Z,31.05
2023-03-19T23:24:28.042Z,26.50
2023-03-19T23:26:56.649Z,34.58
2023-03-19T23:29:36.047Z,33.33
2023-03-19T23:32:04.516Z,32.83
2023-03-19T23:34:33.502Z,28.50
2023-03-19T23:37:02.681Z,31.77
2023-03-19T23:39:29.362Z,31.80
2023-03-19T23:41:58.672Z,33.45
2023-03-19T23:44:27.195Z,30.40
2023-03-19T23:46:55.600Z,31.60
2023-03-19T23:49:32.523Z,34.10
2023-03-19T23:52:00.265Z,33.25
2023-03-19T23:54:31.299Z,29.67
2023-03-19T23:57:01.245Z,33.53
2023-03-19T23:59:32.466Z,28.30
